Aérodrome :
LOGIN :

S'inscrire | Disclaimer

   EN    FR    IT 

 










Légende :    VFR   VFR Marginal   IFR   IFR Intensif   IFR Très Intensif
Visi : 
Plafond : 
>= 8 km
>= 3000ft
5 à 8 km
1000 à 3000 ft
1500m à 5 km
500 à 1000 ft
800 à 1500m
200 à 500 ft
< 800m
< 200 ft
Symboles :   Orages  Brouillard  Fortes neiges  Fortes précipitations  Vent > 20 kt
SIGMETs :   Divers  Orages  Givrage  Turbulence  Onde Orograph.  Cendres Volcan.






- Altitude de l'aérodrome : 33 ft
- Code IATA : MHZ


EGUN - RAF Mildenhall

DERNIER METAR :
  • 060555Z 18006KT 9999 FEW085 SCT100 13/06 A2984 RMK AO2A SLP107 WND DATA ESTMD ALSTG/SLP ESTMD RVRNO

METARs EXPIRÉS :
  • 060455Z 17010KT 9999 BKN095 13/05 A2981 RMK AO2A SLP099 WND DATA ESTMD ALSTG/SLP ESTMD RVRNO
  • 060355Z 18010KT 9999 CLR 13/04 A2981 RMK AO2A SLP098 WND DATA ESTMD ALSTG/SLP ESTMD RVRNO

TAF TAF EGUN
Valide du 06 à 04h jusqu'au 07 à 10h UTC


060400Z 0604/0710 19009KT 9999 SKC QNH2983INS
BECMG 0608/0609 21010G15KT 8000 -RA BKN015 QNH2994INS
BECMG 0610/0611 26012KT 9999 NSW SCT025 QNH2999INS
BECMG 0701/0702 VRB06KT 8000 BR SKC QNH3036INS
BECMG 0708/0709 12009KT 9999 NSW SKC QNH3043INS TX17/0614Z TN05/0702Z



MET'MAP, la Météo Aéronautique d'un coup d'oeil ! - Copyright ORBIFLY Décembre 2007 - Disclaimer

ORBIFLY MET'MAP TEAM :

Programmation & Développement : Alexandra Zaïnal
Sur une idée originale de : Baudouin d'Aumeries
Assistance à la programmation : Marc-Olivier Méhu
Soutien technique & logistique : Manuel Goepfert

Contact : metmap@orbifly.com




SOURCES & CREDITS :

   NOAA